Time,TemperatureF,DewpointF,PressureIn,WindDirection,WindDirectionDegrees,WindSpeedMPH,WindSpeedGustMPH,Humidity,HourlyPrecipIn,Conditions,Clouds,dailyrainin,SoftwareType,DateUTC
2013-05-02 00:03:00,69.0,68.0,29.93,NE,54,0.0,2.0,98,0.00,,,0.69,,2013-05-02 04:03:00,
2013-05-02 00:12:00,69.0,68.0,29.93,NE,54,0.0,0.0,98,0.00,,,0.69,,2013-05-02 04:12:00,
2013-05-02 00:23:00,69.0,68.0,29.93,NE,54,0.0,0.0,98,0.00,,,0.69,,2013-05-02 04:23:00,
2013-05-02 00:33:00,69.0,68.0,29.94,NE,54,0.0,0.0,98,0.00,,,0.69,,2013-05-02 04:33:00,
2013-05-02 00:42:00,69.0,68.0,29.94,NE,54,0.0,0.0,98,0.00,,,0.69,,2013-05-02 04:42:00,
2013-05-02 00:52:00,70.0,69.0,29.95,NE,54,0.0,0.0,98,0.00,,,0.69,,2013-05-02 04:52:00,
2013-05-02 01:02:00,69.0,68.0,29.95,NW,312,1.0,3.0,98,0.01,,,0.70,,2013-05-02 05:02:00,
2013-05-02 01:12:00,69.0,68.0,29.94,NNW,331,1.0,3.0,98,0.02,,,0.71,,2013-05-02 05:12:00,
2013-05-02 01:22:00,69.0,68.0,29.94,NNW,331,1.0,3.0,98,0.02,,,0.71,,2013-05-02 05:22:00,
2013-05-02 01:32:00,68.0,67.0,29.93,NNE,29,1.0,5.0,97,0.03,,,0.72,,2013-05-02 05:32:00,
2013-05-02 01:42:00,68.0,67.0,29.93,NNE,29,1.0,5.0,97,0.03,,,0.72,,2013-05-02 05:42:00,
2013-05-02 01:52:00,68.0,67.0,29.92,ENE,57,2.0,5.0,97,0.12,,,0.81,,2013-05-02 05:52:00,
2013-05-02 02:01:00,67.0,66.0,29.91,ENE,69,3.0,7.0,97,0.11,,,0.81,,2013-05-02 06:01:00,
2013-05-02 02:12:00,67.0,66.0,29.91,ENE,69,3.0,7.0,97,0.11,,,0.81,,2013-05-02 06:12:00,
2013-05-02 02:21:00,67.0,66.0,29.91,NE,47,2.0,3.0,97,0.11,,,0.82,,2013-05-02 06:21:00,
2013-05-02 02:32:00,67.0,66.0,29.90,ENE,59,2.0,6.0,97,0.10,,,0.82,,2013-05-02 06:32:00,
2013-05-02 02:42:00,67.0,66.0,29.90,ENE,59,2.0,6.0,97,0.10,,,0.82,,2013-05-02 06:42:00,
2013-05-02 02:52:00,66.0,65.0,29.90,NE,38,2.0,6.0,97,0.01,,,0.82,,2013-05-02 06:52:00,
2013-05-02 03:02:00,66.0,65.0,29.89,ENE,58,3.0,7.0,97,0.01,,,0.82,,2013-05-02 07:02:00,
2013-05-02 03:11:00,66.0,65.0,29.89,ENE,58,3.0,7.0,97,0.01,,,0.82,,2013-05-02 07:11:00,
2013-05-02 03:21:00,66.0,65.0,29.89,ENE,69,1.0,3.0,97,0.00,,,0.82,,2013-05-02 07:21:00,
2013-05-02 03:32:00,67.0,66.0,29.90,East,98,1.0,3.0,97,0.01,,,0.83,,2013-05-02 07:32:00,
2013-05-02 03:42:00,67.0,66.0,29.90,East,96,0.0,3.0,97,0.07,,,0.89,,2013-05-02 07:42:00,
2013-05-02 03:52:00,67.0,66.0,29.90,East,96,0.0,3.0,97,0.07,,,0.89,,2013-05-02 07:52:00,
2013-05-02 04:02:00,67.0,66.0,29.91,NW,306,0.0,3.0,97,0.13,,,0.95,,2013-05-02 08:02:00,
2013-05-02 04:11:00,67.0,66.0,29.91,NW,323,0.0,3.0,97,0.28,,,1.10,,2013-05-02 08:11:00,
2013-05-02 04:22:00,67.0,66.0,29.91,NW,323,0.0,3.0,97,0.28,,,1.10,,2013-05-02 08:22:00,
2013-05-02 04:32:00,67.0,66.0,29.90,NE,35,1.0,5.0,97,0.38,,,1.21,,2013-05-02 08:32:00,
2013-05-02 04:42:00,67.0,66.0,29.90,NE,35,1.0,5.0,97,0.38,,,1.21,,2013-05-02 08:42:00,
2013-05-02 04:52:00,67.0,66.0,29.90,NE,35,1.0,3.0,97,0.36,,,1.25,,2013-05-02 08:52:00,
2013-05-02 05:02:00,67.0,66.0,29.91,WNW,299,1.0,3.0,97,0.37,,,1.32,,2013-05-02 09:02:00,
2013-05-02 05:12:00,67.0,66.0,29.91,WNW,299,1.0,3.0,97,0.37,,,1.32,,2013-05-02 09:12:00,
2013-05-02 05:21:00,67.0,66.0,29.91,West,278,1.0,6.0,97,0.30,,,1.40,,2013-05-02 09:21:00,
2013-05-02 05:32:00,67.0,66.0,29.92,SW,225,0.0,0.0,97,0.36,,,1.57,,2013-05-02 09:32:00,
2013-05-02 05:42:00,67.0,66.0,29.92,SW,225,0.0,0.0,97,0.36,,,1.57,,2013-05-02 09:42:00,
2013-05-02 05:52:00,67.0,66.0,29.92,NNE,26,2.0,6.0,97,0.50,,,1.75,,2013-05-02 09:52:00,
2013-05-02 06:03:00,67.0,66.0,29.92,NNE,25,1.0,5.0,97,0.60,,,1.92,,2013-05-02 10:03:00,
2013-05-02 06:12:00,67.0,66.0,29.92,NNE,25,1.0,5.0,97,0.60,,,1.92,,2013-05-02 10:12:00,
2013-05-02 06:22:00,67.0,66.0,29.91,ENE,75,1.0,3.0,98,0.59,,,1.99,,2013-05-02 10:22:00,
2013-05-02 06:33:00,67.0,66.0,29.91,ESE,109,0.0,0.0,98,0.43,,,2.00,,2013-05-02 10:33:00,
2013-05-02 06:42:00,67.0,66.0,29.91,ESE,109,0.0,0.0,98,0.43,,,2.00,,2013-05-02 10:42:00,
2013-05-02 06:53:00,67.0,66.0,29.91,East,94,3.0,6.0,98,0.25,,,2.00,,2013-05-02 10:53:00,
2013-05-02 07:02:00,66.0,65.0,29.90,East,88,3.0,8.0,97,0.08,,,2.00,,2013-05-02 11:02:00,
2013-05-02 07:12:00,66.0,65.0,29.90,East,88,3.0,8.0,97,0.08,,,2.00,,2013-05-02 11:12:00,
2013-05-02 07:22:00,65.0,64.0,29.90,ENE,75,1.0,3.0,97,0.01,,,2.00,,2013-05-02 11:22:00,
2013-05-02 07:32:00,65.0,64.0,29.91,East,80,0.0,3.0,97,0.01,,,2.01,,2013-05-02 11:32:00,
2013-05-02 07:42:00,65.0,64.0,29.91,East,80,0.0,3.0,97,0.01,,,2.01,,2013-05-02 11:42:00,
2013-05-02 07:52:00,65.0,64.0,29.91,ENE,71,0.0,3.0,97,0.01,,,2.01,,2013-05-02 11:52:00,
2013-05-02 08:01:00,65.0,64.0,29.91,ENE,76,1.0,8.0,97,0.01,,,2.01,,2013-05-02 12:01:00,
2013-05-02 08:11:00,65.0,64.0,29.91,ENE,76,1.0,8.0,97,0.01,,,2.01,,2013-05-02 12:11:00,
2013-05-02 08:21:00,66.0,65.0,29.91,ENE,70,1.0,3.0,97,0.01,,,2.01,,2013-05-02 12:21:00,
2013-05-02 08:32:00,67.0,66.0,29.92,NE,43,0.0,5.0,97,0.00,,,2.01,,2013-05-02 12:32:00,
2013-05-02 08:42:00,67.0,66.0,29.92,NE,43,0.0,5.0,97,0.00,,,2.01,,2013-05-02 12:42:00,
2013-05-02 08:52:00,67.0,66.0,29.92,ENE,61,1.0,3.0,97,0.00,,,2.01,,2013-05-02 12:52:00,
2013-05-02 09:01:00,69.0,68.0,29.91,East,91,3.0,6.0,98,0.00,,,2.01,,2013-05-02 13:01:00,
2013-05-02 09:11:00,69.0,68.0,29.91,East,91,3.0,6.0,98,0.00,,,2.01,,2013-05-02 13:11:00,
2013-05-02 09:21:00,71.0,69.0,29.92,East,80,5.0,9.0,94,0.00,,,2.00,,2013-05-02 13:21:00,
2013-05-02 09:32:00,71.0,69.0,29.92,East,89,4.0,7.0,94,0.00,,,1.97,,2013-05-02 13:32:00,
2013-05-02 09:42:00,71.0,69.0,29.92,East,89,4.0,7.0,94,0.00,,,1.97,,2013-05-02 13:42:00,
2013-05-02 09:52:00,71.0,69.0,29.92,ESE,121,6.0,9.0,93,0.00,,,1.96,,2013-05-02 13:52:00,
2013-05-02 10:02:00,71.0,69.0,29.93,ESE,111,2.0,10.0,93,0.06,,,2.01,,2013-05-02 14:02:00,
2013-05-02 10:11:00,71.0,69.0,29.93,ESE,111,2.0,10.0,93,0.06,,,2.01,,2013-05-02 14:11:00,
2013-05-02 10:22:00,71.0,69.0,29.93,ESE,117,2.0,6.0,95,0.14,,,2.09,,2013-05-02 14:22:00,
2013-05-02 10:32:00,72.0,71.0,29.92,ESE,107,2.0,7.0,96,0.14,,,2.08,,2013-05-02 14:32:00,
2013-05-02 10:42:00,72.0,71.0,29.92,ESE,107,2.0,7.0,96,0.14,,,2.08,,2013-05-02 14:42:00,
2013-05-02 10:52:00,73.0,71.0,29.91,East,86,3.0,10.0,92,0.14,,,2.08,,2013-05-02 14:52:00,
2013-05-02 11:02:00,74.0,72.0,29.91,ESE,105,4.0,10.0,92,0.08,,,2.07,,2013-05-02 15:02:00,
2013-05-02 11:12:00,74.0,72.0,29.91,ESE,105,4.0,10.0,92,0.08,,,2.07,,2013-05-02 15:12:00,
2013-05-02 11:22:00,74.0,71.0,29.91,ESE,108,5.0,12.0,90,0.00,,,2.07,,2013-05-02 15:22:00,
2013-05-02 11:33:00,74.0,70.0,29.91,East,93,9.0,14.0,88,0.00,,,2.07,,2013-05-02 15:33:00,
2013-05-02 11:43:00,74.0,70.0,29.91,East,93,9.0,14.0,88,0.00,,,2.07,,2013-05-02 15:43:00,
2013-05-02 12:03:00,75.0,71.0,29.92,East,96,6.0,13.0,88,0.00,,,2.07,,2013-05-02 16:03:00,
2013-05-02 12:13:00,75.0,71.0,29.92,East,96,6.0,13.0,88,0.00,,,2.07,,2013-05-02 16:13:00,
2013-05-02 12:22:00,74.0,71.0,29.91,ENE,76,2.0,7.0,89,0.00,,,2.06,,2013-05-02 16:22:00,
2013-05-02 12:32:00,75.0,71.0,29.90,East,94,3.0,6.0,88,0.00,,,2.05,,2013-05-02 16:32:00,
2013-05-02 12:43:00,74.0,70.0,29.90,East,92,5.0,10.0,87,0.00,,,2.02,,2013-05-02 16:43:00,
2013-05-02 12:52:00,74.0,70.0,29.90,East,92,5.0,10.0,87,0.00,,,2.02,,2013-05-02 16:52:00,
2013-05-02 13:02:00,74.0,70.0,29.89,East,86,3.0,7.0,88,0.00,,,1.98,,2013-05-02 17:02:00,
2013-05-02 13:12:00,75.0,71.0,29.88,ESE,104,3.0,7.0,88,0.00,,,1.96,,2013-05-02 17:12:00,
2013-05-02 13:22:00,75.0,71.0,29.88,ESE,104,3.0,7.0,88,0.00,,,1.96,,2013-05-02 17:22:00,
2013-05-02 13:32:00,75.0,71.0,29.88,East,97,3.0,7.0,86,0.00,,,1.94,,2013-05-02 17:32:00,
2013-05-02 13:42:00,75.0,71.0,29.88,East,97,3.0,7.0,86,0.00,,,1.94,,2013-05-02 17:42:00,
2013-05-02 13:52:00,75.0,71.0,29.88,East,88,5.0,10.0,87,0.00,,,1.92,,2013-05-02 17:52:00,
2013-05-02 14:01:00,75.0,71.0,29.88,ESE,116,2.0,7.0,87,0.00,,,1.91,,2013-05-02 18:01:00,
2013-05-02 14:11:00,75.0,71.0,29.88,ESE,116,2.0,7.0,87,0.00,,,1.91,,2013-05-02 18:11:00,
2013-05-02 14:22:00,75.0,71.0,29.87,ESE,104,1.0,5.0,86,0.00,,,1.81,,2013-05-02 18:22:00,
2013-05-02 14:32:00,75.0,71.0,29.86,East,93,3.0,7.0,86,0.00,,,1.77,,2013-05-02 18:32:00,
2013-05-02 14:42:00,75.0,71.0,29.86,East,93,3.0,7.0,86,0.00,,,1.77,,2013-05-02 18:42:00,
2013-05-02 14:52:00,76.0,72.0,29.86,SE,144,2.0,7.0,86,0.00,,,1.75,,2013-05-02 18:52:00,
2013-05-02 15:01:00,76.0,71.0,29.86,SE,128,3.0,8.0,84,0.00,,,1.74,,2013-05-02 19:01:00,
2013-05-02 15:11:00,76.0,71.0,29.86,SE,128,3.0,8.0,84,0.00,,,1.74,,2013-05-02 19:11:00,
2013-05-02 15:22:00,76.0,70.0,29.86,East,92,3.0,10.0,82,0.00,,,1.74,,2013-05-02 19:22:00,
2013-05-02 15:32:00,75.0,70.0,29.86,SSE,161,1.0,5.0,84,0.00,,,1.74,,2013-05-02 19:32:00,
2013-05-02 15:42:00,75.0,70.0,29.86,SSE,161,1.0,5.0,84,0.00,,,1.74,,2013-05-02 19:42:00,
2013-05-02 15:52:00,75.0,70.0,29.85,SSE,154,2.0,6.0,84,0.00,,,1.74,,2013-05-02 19:52:00,
2013-05-02 16:02:00,75.0,70.0,29.85,ESE,111,2.0,5.0,85,0.00,,,1.74,,2013-05-02 20:02:00,
2013-05-02 16:11:00,75.0,70.0,29.85,SSE,153,0.0,0.0,85,0.00,,,1.74,,2013-05-02 20:11:00,
2013-05-02 16:22:00,75.0,70.0,29.85,SSE,153,0.0,0.0,85,0.00,,,1.74,,2013-05-02 20:22:00,
2013-05-02 16:32:00,74.0,70.0,29.85,East,92,2.0,6.0,86,0.00,,,1.74,,2013-05-02 20:32:00,
2013-05-02 16:41:00,74.0,70.0,29.85,East,92,2.0,6.0,86,0.00,,,1.74,,2013-05-02 20:41:00,
2013-05-02 16:52:00,74.0,70.0,29.84,SSE,147,3.0,12.0,86,0.00,,,1.74,,2013-05-02 20:52:00,
2013-05-02 17:01:00,74.0,70.0,29.84,SSW,199,2.0,6.0,87,0.00,,,1.74,,2013-05-02 21:01:00,
2013-05-02 17:12:00,74.0,70.0,29.84,ENE,71,2.0,7.0,87,0.00,,,1.74,,2013-05-02 21:12:00,
2013-05-02 17:21:00,74.0,70.0,29.84,ENE,71,2.0,7.0,87,0.00,,,1.74,,2013-05-02 21:21:00,
2013-05-02 17:33:00,74.0,70.0,29.83,SSE,162,3.0,7.0,87,0.00,,,1.74,,2013-05-02 21:33:00,
2013-05-02 17:42:00,74.0,70.0,29.83,SSE,162,3.0,7.0,87,0.00,,,1.74,,2013-05-02 21:42:00,
2013-05-02 17:53:00,73.0,68.0,29.83,ESE,121,3.0,7.0,85,0.00,,,1.74,,2013-05-02 21:53:00,
2013-05-02 18:03:00,73.0,69.0,29.83,South,185,2.0,7.0,86,0.00,,,1.72,,2013-05-02 22:03:00,
2013-05-02 18:12:00,73.0,69.0,29.83,South,185,2.0,7.0,86,0.00,,,1.72,,2013-05-02 22:12:00,
2013-05-02 18:22:00,73.0,69.0,29.82,SSE,155,0.0,3.0,87,0.00,,,1.68,,2013-05-02 22:22:00,
2013-05-02 18:32:00,72.0,68.0,29.82,South,190,0.0,0.0,88,0.00,,,1.58,,2013-05-02 22:32:00,
2013-05-02 18:42:00,72.0,68.0,29.82,South,190,0.0,0.0,88,0.00,,,1.58,,2013-05-02 22:42:00,
2013-05-02 18:53:00,72.0,69.0,29.81,SE,145,1.0,3.0,89,0.00,,,1.54,,2013-05-02 22:53:00,
2013-05-02 19:02:00,72.0,69.0,29.81,SE,144,0.0,0.0,90,0.00,,,1.51,,2013-05-02 23:02:00,
2013-05-02 19:11:00,72.0,69.0,29.81,SE,144,0.0,0.0,90,0.00,,,1.51,,2013-05-02 23:11:00,
2013-05-02 19:22:00,72.0,69.0,29.82,South,172,0.0,1.0,91,0.00,,,1.50,,2013-05-02 23:22:00,
2013-05-02 19:32:00,72.0,69.0,29.82,SSE,163,1.0,5.0,91,0.00,,,1.50,,2013-05-02 23:32:00,
2013-05-02 19:42:00,72.0,69.0,29.82,SSE,163,1.0,5.0,91,0.00,,,1.50,,2013-05-02 23:42:00,
2013-05-02 19:52:00,72.0,69.0,29.83,SSE,150,0.0,0.0,91,0.00,,,1.49,,2013-05-02 23:52:00,
2013-05-02 20:01:00,72.0,70.0,29.83,SSW,198,0.0,0.0,92,0.00,,,1.49,,2013-05-03 00:01:00,
2013-05-02 20:11:00,71.0,69.0,29.83,SSW,199,0.0,0.0,92,0.00,,,1.49,,2013-05-03 00:11:00,
2013-05-02 20:21:00,71.0,69.0,29.83,SSW,199,0.0,0.0,92,0.00,,,1.49,,2013-05-03 00:21:00,
2013-05-02 20:31:00,71.0,69.0,29.83,SSW,199,0.0,0.0,93,0.00,,,1.48,,2013-05-03 00:31:00,
2013-05-02 20:42:00,71.0,69.0,29.83,SSW,199,0.0,0.0,93,0.00,,,1.48,,2013-05-03 00:42:00,
2013-05-02 20:52:00,71.0,69.0,29.83,SSW,199,0.0,0.0,94,0.00,,,1.48,,2013-05-03 00:52:00,
2013-05-02 21:01:00,70.0,68.0,29.83,East,88,0.0,1.0,94,0.00,,,1.48,,2013-05-03 01:01:00,
2013-05-02 21:11:00,70.0,68.0,29.83,East,88,0.0,1.0,94,0.00,,,1.48,,2013-05-03 01:11:00,
2013-05-02 21:21:00,70.0,68.0,29.83,East,82,0.0,0.0,95,0.00,,,1.48,,2013-05-03 01:21:00,
2013-05-02 21:32:00,70.0,68.0,29.83,East,82,0.0,0.0,95,0.00,,,1.47,,2013-05-03 01:32:00,
2013-05-02 21:42:00,70.0,68.0,29.83,East,82,0.0,0.0,95,0.00,,,1.47,,2013-05-03 01:42:00,
2013-05-02 21:52:00,70.0,69.0,29.84,East,82,0.0,0.0,96,0.00,,,1.47,,2013-05-03 01:52:00,
2013-05-02 22:01:00,69.0,68.0,29.84,East,82,0.0,0.0,96,0.00,,,1.47,,2013-05-03 02:01:00,
2013-05-02 22:11:00,69.0,68.0,29.84,East,82,0.0,0.0,96,0.00,,,1.47,,2013-05-03 02:11:00,
2013-05-02 22:22:00,69.0,68.0,29.84,East,82,0.0,0.0,96,0.00,,,1.47,,2013-05-03 02:22:00,
2013-05-02 22:32:00,69.0,68.0,29.84,East,82,0.0,0.0,96,0.00,,,1.47,,2013-05-03 02:32:00,
2013-05-02 22:42:00,69.0,68.0,29.84,East,82,0.0,0.0,96,0.00,,,1.47,,2013-05-03 02:42:00,
2013-05-02 22:52:00,69.0,68.0,29.84,East,82,0.0,0.0,96,0.00,,,1.46,,2013-05-03 02:52:00,
2013-05-02 23:01:00,69.0,68.0,29.84,East,82,0.0,0.0,96,0.00,,,1.46,,2013-05-03 03:01:00,
2013-05-02 23:11:00,69.0,68.0,29.84,East,82,0.0,0.0,96,0.00,,,1.46,,2013-05-03 03:11:00,
2013-05-02 23:21:00,69.0,68.0,29.84,East,82,0.0,0.0,96,0.00,,,1.46,,2013-05-03 03:21:00,
2013-05-02 23:33:00,69.0,68.0,29.83,SW,225,0.0,0.0,96,0.00,,,1.46,,2013-05-03 03:33:00,
2013-05-02 23:42:00,69.0,68.0,29.83,SW,225,0.0,0.0,96,0.00,,,1.46,,2013-05-03 03:42:00,
2013-05-02 23:53:00,69.0,68.0,29.83,SW,225,0.0,0.0,96,0.00,,,1.46,,2013-05-03 03:53:00,